sensor_id;sensor_type;location;lat;lon;timestamp;pressure;altitude;pressure_sealevel;temperature;humidity
5952;BME280;3001;42.622;23.194;2023-07-31T00:02:12;91166.75;;;23.85;90.57
5952;BME280;3001;42.622;23.194;2023-07-31T00:04:40;91163.28;;;24.06;89.07
5952;BME280;3001;42.622;23.194;2023-07-31T00:07:07;91167.44;;;24.03;89.08
5952;BME280;3001;42.622;23.194;2023-07-31T00:09:33;91161.41;;;23.96;89.46
5952;BME280;3001;42.622;23.194;2023-07-31T00:12:00;91167.13;;;23.87;90.12
5952;BME280;3001;42.622;23.194;2023-07-31T00:14:27;91153.88;;;23.70;90.90
5952;BME280;3001;42.622;23.194;2023-07-31T00:16:54;91145.56;;;23.54;90.24
5952;BME280;3001;42.622;23.194;2023-07-31T00:19:20;91134.63;;;23.41;90.65
5952;BME280;3001;42.622;23.194;2023-07-31T00:21:48;91135.75;;;23.09;92.84
5952;BME280;3001;42.622;23.194;2023-07-31T00:24:15;91128.94;;;22.94;94.34
5952;BME280;3001;42.622;23.194;2023-07-31T00:26:42;91116.06;;;22.79;93.97
5952;BME280;3001;42.622;23.194;2023-07-31T00:29:08;91106.59;;;22.85;94.35
5952;BME280;3001;42.622;23.194;2023-07-31T00:31:35;91101.31;;;22.64;95.28
5952;BME280;3001;42.622;23.194;2023-07-31T00:34:02;91083.53;;;22.57;96.10
5952;BME280;3001;42.622;23.194;2023-07-31T00:36:28;91085.06;;;22.69;95.83
5952;BME280;3001;42.622;23.194;2023-07-31T00:38:56;91077.47;;;22.60;96.81
5952;BME280;3001;42.622;23.194;2023-07-31T00:41:23;91082.78;;;22.92;94.97
5952;BME280;3001;42.622;23.194;2023-07-31T00:43:50;91099.03;;;23.39;91.93
5952;BME280;3001;42.622;23.194;2023-07-31T00:46:16;91100.16;;;23.27;91.90
5952;BME280;3001;42.622;23.194;2023-07-31T00:48:43;91110.03;;;23.16;91.92
5952;BME280;3001;42.622;23.194;2023-07-31T00:51:10;91115.31;;;23.37;92.02
5952;BME280;3001;42.622;23.194;2023-07-31T00:53:37;91111.44;;;23.66;90.67
5952;BME280;3001;42.622;23.194;2023-07-31T00:56:06;91108.47;;;23.43;90.66
5952;BME280;3001;42.622;23.194;2023-07-31T00:58:33;91110.44;;;23.11;92.68
5952;BME280;3001;42.622;23.194;2023-07-31T01:01:00;91111.91;;;22.92;92.93
5952;BME280;3001;42.622;23.194;2023-07-31T01:03:26;91102.44;;;22.94;93.19
5952;BME280;3001;42.622;23.194;2023-07-31T01:06:05;91103.19;;;22.67;94.86
5952;BME280;3001;42.622;23.194;2023-07-31T01:08:40;91106.22;;;22.83;96.17
5952;BME280;3001;42.622;23.194;2023-07-31T01:11:14;91099.44;;;23.13;93.51
5952;BME280;3001;42.622;23.194;2023-07-31T01:13:42;91091.06;;;23.07;93.07
5952;BME280;3001;42.622;23.194;2023-07-31T01:16:09;91085.81;;;22.93;93.26
5952;BME280;3001;42.622;23.194;2023-07-31T01:18:36;91093.00;;;22.79;94.02
5952;BME280;3001;42.622;23.194;2023-07-31T01:21:14;91087.31;;;22.63;94.11
5952;BME280;3001;42.622;23.194;2023-07-31T01:24:06;91085.81;;;22.93;94.37
5952;BME280;3001;42.622;23.194;2023-07-31T01:26:38;91093.34;;;22.85;95.55
5952;BME280;3001;42.622;23.194;2023-07-31T01:29:09;91089.59;;;22.82;95.94
5952;BME280;3001;42.622;23.194;2023-07-31T01:31:36;91091.09;;;22.87;95.19
5952;BME280;3001;42.622;23.194;2023-07-31T01:34:06;91090.34;;;22.96;95.64
5952;BME280;3001;42.622;23.194;2023-07-31T01:36:34;91088.06;;;22.98;95.73
5952;BME280;3001;42.622;23.194;2023-07-31T01:39:01;91084.66;;;23.08;95.08
5952;BME280;3001;42.622;23.194;2023-07-31T01:41:29;91092.22;;;23.20;94.80
5952;BME280;3001;42.622;23.194;2023-07-31T01:43:57;91085.81;;;23.28;95.80
5952;BME280;3001;42.622;23.194;2023-07-31T01:46:23;91089.59;;;22.89;97.72
5952;BME280;3001;42.622;23.194;2023-07-31T01:48:50;91096.38;;;22.87;97.15
5952;BME280;3001;42.622;23.194;2023-07-31T01:51:17;91093.38;;;22.92;97.13
5952;BME280;3001;42.622;23.194;2023-07-31T01:53:44;91097.16;;;22.97;96.83
5952;BME280;3001;42.622;23.194;2023-07-31T01:56:10;91098.69;;;22.92;97.18
5952;BME280;3001;42.622;23.194;2023-07-31T01:58:37;91101.69;;;23.04;96.67
5952;BME280;3001;42.622;23.194;2023-07-31T02:01:05;91091.84;;;22.84;97.62
5952;BME280;3001;42.622;23.194;2023-07-31T02:03:32;91097.16;;;22.73;98.31
5952;BME280;3001;42.622;23.194;2023-07-31T02:05:58;91090.34;;;22.93;97.55
5952;BME280;3001;42.622;23.194;2023-07-31T02:08:25;91098.69;;;22.92;97.86
5952;BME280;3001;42.622;23.194;2023-07-31T02:10:52;91102.09;;;22.89;97.46
5952;BME280;3001;42.622;23.194;2023-07-31T02:13:18;91099.78;;;23.08;97.04
5952;BME280;3001;42.622;23.194;2023-07-31T02:15:45;91098.97;;;23.60;93.83
5952;BME280;3001;42.622;23.194;2023-07-31T02:18:13;91097.88;;;23.50;94.21
5952;BME280;3001;42.622;23.194;2023-07-31T02:20:40;91108.44;;;23.61;94.99
5952;BME280;3001;42.622;23.194;2023-07-31T02:23:07;91100.13;;;23.52;94.28
5952;BME280;3001;42.622;23.194;2023-07-31T02:25:34;91108.09;;;23.45;94.54
5952;BME280;3001;42.622;23.194;2023-07-31T02:28:00;91110.38;;;23.43;95.36
5952;BME280;3001;42.622;23.194;2023-07-31T02:30:27;91108.06;;;23.52;95.36
5952;BME280;3001;42.622;23.194;2023-07-31T02:32:53;91107.00;;;23.39;95.83
5952;BME280;3001;42.622;23.194;2023-07-31T02:35:21;91102.34;;;23.67;95.08
5952;BME280;3001;42.622;23.194;2023-07-31T02:37:48;91100.06;;;23.76;94.54
5952;BME280;3001;42.622;23.194;2023-07-31T02:40:15;91101.19;;;23.68;94.89
5952;BME280;3001;42.622;23.194;2023-07-31T02:42:42;91101.19;;;23.75;94.32
5952;BME280;3001;42.622;23.194;2023-07-31T02:45:09;91107.38;;;23.27;96.36
5952;BME280;3001;42.622;23.194;2023-07-31T02:47:35;91122.00;;;23.87;93.79
5952;BME280;3001;42.622;23.194;2023-07-31T02:50:02;91118.34;;;23.15;97.26
5952;BME280;3001;42.622;23.194;2023-07-31T02:52:30;91104.72;;;22.92;98.13
5952;BME280;3001;42.622;23.194;2023-07-31T02:54:57;91111.91;;;22.88;96.60
5952;BME280;3001;42.622;23.194;2023-07-31T02:57:24;91119.88;;;22.92;96.54
5952;BME280;3001;42.622;23.194;2023-07-31T02:59:50;91112.28;;;22.87;98.26
5952;BME280;3001;42.622;23.194;2023-07-31T03:02:17;91127.41;;;22.72;99.84
5952;BME280;3001;42.622;23.194;2023-07-31T03:04:44;91109.25;;;22.85;98.96
5952;BME280;3001;42.622;23.194;2023-07-31T03:07:10;91117.22;;;22.78;98.95
5952;BME280;3001;42.622;23.194;2023-07-31T03:09:38;91117.22;;;22.78;97.24
5952;BME280;3001;42.622;23.194;2023-07-31T03:12:06;91110.78;;;22.61;98.23
5952;BME280;3001;42.622;23.194;2023-07-31T03:14:32;91112.28;;;22.69;98.73
5952;BME280;3001;42.622;23.194;2023-07-31T03:16:59;91125.16;;;22.67;98.95
5952;BME280;3001;42.622;23.194;2023-07-31T03:19:26;91120.97;;;22.63;99.81
5952;BME280;3001;42.622;23.194;2023-07-31T03:21:52;91112.28;;;22.62;100.00
5952;BME280;3001;42.622;23.194;2023-07-31T03:24:19;91130.06;;;22.72;100.00
5952;BME280;3001;42.622;23.194;2023-07-31T03:26:47;91127.06;;;22.88;99.66
5952;BME280;3001;42.622;23.194;2023-07-31T03:29:14;91123.25;;;22.57;99.66
5952;BME280;3001;42.622;23.194;2023-07-31T03:31:40;91122.88;;;22.59;99.88
5952;BME280;3001;42.622;23.194;2023-07-31T03:34:07;91130.09;;;22.79;98.60
5952;BME280;3001;42.622;23.194;2023-07-31T03:36:34;91130.44;;;22.78;98.08
5952;BME280;3001;42.622;23.194;2023-07-31T03:39:00;91142.94;;;22.81;97.84
5952;BME280;3001;42.622;23.194;2023-07-31T03:41:27;91141.47;;;23.28;95.88
5952;BME280;3001;42.622;23.194;2023-07-31T03:43:55;91149.38;;;22.80;96.98
5952;BME280;3001;42.622;23.194;2023-07-31T03:46:22;91150.09;;;23.60;93.98
5952;BME280;3001;42.622;23.194;2023-07-31T03:48:49;91154.28;;;23.58;94.39
5952;BME280;3001;42.622;23.194;2023-07-31T03:51:15;91154.22;;;23.89;93.35
5952;BME280;3001;42.622;23.194;2023-07-31T03:53:43;91155.38;;;23.85;93.04
5952;BME280;3001;42.622;23.194;2023-07-31T03:56:10;91150.50;;;22.99;96.62
5952;BME280;3001;42.622;23.194;2023-07-31T03:58:36;91152.00;;;22.87;98.38
5952;BME280;3001;42.622;23.194;2023-07-31T04:01:06;91151.25;;;22.83;98.96
5952;BME280;3001;42.622;23.194;2023-07-31T04:03:32;91153.91;;;22.76;99.74
5952;BME280;3001;42.622;23.194;2023-07-31T04:05:59;91149.00;;;22.78;99.68
5952;BME280;3001;42.622;23.194;2023-07-31T04:08:26;91161.13;;;22.82;98.93
5952;BME280;3001;42.622;23.194;2023-07-31T04:10:52;91159.22;;;22.79;99.85
5952;BME280;3001;42.622;23.194;2023-07-31T04:13:19;91150.88;;;22.74;100.00
5952;BME280;3001;42.622;23.194;2023-07-31T04:15:48;91156.94;;;22.85;100.00
5952;BME280;3001;42.622;23.194;2023-07-31T04:18:17;91155.44;;;22.94;96.43
5952;BME280;3001;42.622;23.194;2023-07-31T04:20:44;91161.13;;;22.92;96.87
5952;BME280;3001;42.622;23.194;2023-07-31T04:23:10;91164.13;;;22.81;97.62
5952;BME280;3001;42.622;23.194;2023-07-31T04:25:37;91163.00;;;22.82;98.35
5952;BME280;3001;42.622;23.194;2023-07-31T04:28:04;91169.44;;;22.88;98.41
5952;BME280;3001;42.622;23.194;2023-07-31T04:30:31;91173.56;;;22.71;98.38
5952;BME280;3001;42.622;23.194;2023-07-31T04:32:57;91179.66;;;22.82;96.85
5952;BME280;3001;42.622;23.194;2023-07-31T04:35:25;91164.91;;;22.81;95.74
5952;BME280;3001;42.622;23.194;2023-07-31T04:37:52;91171.69;;;22.75;96.43
5952;BME280;3001;42.622;23.194;2023-07-31T04:40:19;91165.63;;;22.71;98.61
5952;BME280;3001;42.622;23.194;2023-07-31T04:42:45;91171.69;;;22.79;99.10
5952;BME280;3001;42.622;23.194;2023-07-31T04:45:12;91162.63;;;22.93;98.53
5952;BME280;3001;42.622;23.194;2023-07-31T04:47:39;91162.25;;;22.95;98.73
5952;BME280;3001;42.622;23.194;2023-07-31T04:50:06;91159.22;;;22.93;98.86
5952;BME280;3001;42.622;23.194;2023-07-31T04:52:35;91163.38;;;23.04;97.78
5952;BME280;3001;42.622;23.194;2023-07-31T04:55:01;91160.75;;;23.01;99.00
5952;BME280;3001;42.622;23.194;2023-07-31T04:57:28;91155.84;;;23.17;97.84
5952;BME280;3001;42.622;23.194;2023-07-31T04:59:55;91158.09;;;23.25;98.20
5952;BME280;3001;42.622;23.194;2023-07-31T05:02:21;91172.13;;;23.29;98.56
5952;BME280;3001;42.622;23.194;2023-07-31T05:04:48;91170.59;;;23.42;96.16
5952;BME280;3001;42.622;23.194;2023-07-31T05:07:15;91172.88;;;23.37;95.16
5952;BME280;3001;42.622;23.194;2023-07-31T05:09:44;91162.25;;;23.37;94.51
5952;BME280;3001;42.622;23.194;2023-07-31T05:12:10;91166.06;;;23.39;95.60
5952;BME280;3001;42.622;23.194;2023-07-31T05:14:37;91160.75;;;23.36;94.74
5952;BME280;3001;42.622;23.194;2023-07-31T05:17:04;91160.00;;;23.32;95.55
5952;BME280;3001;42.622;23.194;2023-07-31T05:19:31;91166.06;;;23.25;97.31
5952;BME280;3001;42.622;23.194;2023-07-31T05:21:57;91169.09;;;23.34;91.89
5952;BME280;3001;42.622;23.194;2023-07-31T05:24:24;91165.69;;;23.30;90.77
5952;BME280;3001;42.622;23.194;2023-07-31T05:26:52;91161.13;;;23.27;93.29
5952;BME280;3001;42.622;23.194;2023-07-31T05:29:19;91161.09;;;23.48;92.75
5952;BME280;3001;42.622;23.194;2023-07-31T05:31:46;91172.47;;;23.59;92.73
5952;BME280;3001;42.622;23.194;2023-07-31T05:34:13;91167.53;;;23.47;95.03
5952;BME280;3001;42.622;23.194;2023-07-31T05:36:40;91176.25;;;23.58;94.18
5952;BME280;3001;42.622;23.194;2023-07-31T05:39:06;91168.63;;;23.78;93.03
5952;BME280;3001;42.622;23.194;2023-07-31T05:41:34;91167.88;;;23.81;93.03
5952;BME280;3001;42.622;23.194;2023-07-31T05:44:03;91171.28;;;23.95;88.20
5952;BME280;3001;42.622;23.194;2023-07-31T05:46:30;91169.38;;;23.99;89.36
5952;BME280;3001;42.622;23.194;2023-07-31T05:48:57;91167.44;;;24.10;88.22
5952;BME280;3001;42.622;23.194;2023-07-31T05:51:26;91170.06;;;24.14;88.94
5952;BME280;3001;42.622;23.194;2023-07-31T05:53:52;91173.13;;;24.09;88.66
5952;BME280;3001;42.622;23.194;2023-07-31T05:56:19;91179.13;;;24.23;87.91
5952;BME280;3001;42.622;23.194;2023-07-31T05:58:46;91177.25;;;24.17;86.56
5952;BME280;3001;42.622;23.194;2023-07-31T06:01:16;91180.22;;;24.36;86.00
5952;BME280;3001;42.622;23.194;2023-07-31T06:03:43;91180.28;;;24.22;88.22
5952;BME280;3001;42.622;23.194;2023-07-31T06:06:10;91183.31;;;24.24;85.75
5952;BME280;3001;42.622;23.194;2023-07-31T06:08:38;91195.78;;;24.31;84.26
5952;BME280;3001;42.622;23.194;2023-07-31T06:11:05;91188.16;;;24.47;84.76
5952;BME280;3001;42.622;23.194;2023-07-31T06:13:34;91191.94;;;24.46;85.33
5952;BME280;3001;42.622;23.194;2023-07-31T06:16:00;91203.72;;;24.41;83.10
5952;BME280;3001;42.622;23.194;2023-07-31T06:18:31;91193.22;;;24.10;78.28
5952;BME280;3001;42.622;23.194;2023-07-31T06:20:58;91193.25;;;24.03;80.43
5952;BME280;3001;42.622;23.194;2023-07-31T06:23:25;91199.28;;;24.10;82.61
5952;BME280;3001;42.622;23.194;2023-07-31T06:25:51;91197.00;;;24.12;82.26
5952;BME280;3001;42.622;23.194;2023-07-31T06:28:18;91195.84;;;24.17;82.93
5952;BME280;3001;42.622;23.194;2023-07-31T06:30:45;91191.75;;;23.98;84.66
5952;BME280;3001;42.622;23.194;2023-07-31T06:33:12;91196.66;;;24.03;85.53
5952;BME280;3001;42.622;23.194;2023-07-31T06:35:40;91195.47;;;24.18;86.81
5952;BME280;3001;42.622;23.194;2023-07-31T06:38:07;91191.72;;;24.12;86.31
5952;BME280;3001;42.622;23.194;2023-07-31T06:40:33;91195.75;;;24.38;84.08
5952;BME280;3001;42.622;23.194;2023-07-31T06:43:00;91188.94;;;24.40;83.47
5952;BME280;3001;42.622;23.194;2023-07-31T06:45:33;91199.91;;;24.46;81.12
5952;BME280;3001;42.622;23.194;2023-07-31T06:48:00;91203.31;;;24.46;80.09
5952;BME280;3001;42.622;23.194;2023-07-31T06:50:27;91196.13;;;24.47;80.25
5952;BME280;3001;42.622;23.194;2023-07-31T06:52:55;91194.25;;;24.40;80.09
5952;BME280;3001;42.622;23.194;2023-07-31T06:55:23;91192.69;;;24.50;78.89
5952;BME280;3001;42.622;23.194;2023-07-31T06:57:51;91204.44;;;24.49;80.04
5952;BME280;3001;42.622;23.194;2023-07-31T07:00:19;91202.19;;;24.54;76.64
5952;BME280;3001;42.622;23.194;2023-07-31T07:02:46;91199.13;;;24.56;77.89
5952;BME280;3001;42.622;23.194;2023-07-31T07:05:14;91158.25;;;24.32;78.97
5952;BME280;3001;42.622;23.194;2023-07-31T07:07:41;91191.19;;;24.45;81.77
5952;BME280;3001;42.622;23.194;2023-07-31T07:10:09;91191.94;;;24.56;83.21
5952;BME280;3001;42.622;23.194;2023-07-31T07:12:36;91191.88;;;24.63;82.49
5952;BME280;3001;42.622;23.194;2023-07-31T07:15:03;91192.25;;;24.69;78.61
5952;BME280;3001;42.622;23.194;2023-07-31T07:17:30;91183.13;;;24.66;79.41
5952;BME280;3001;42.622;23.194;2023-07-31T07:19:57;91189.16;;;24.74;80.79
5952;BME280;3001;42.622;23.194;2023-07-31T07:22:24;91192.13;;;24.86;79.92
5952;BME280;3001;42.622;23.194;2023-07-31T07:24:51;91188.00;;;24.78;80.61
5952;BME280;3001;42.622;23.194;2023-07-31T07:27:19;91190.31;;;24.76;75.91
5952;BME280;3001;42.622;23.194;2023-07-31T07:29:46;91196.66;;;24.89;73.45
5952;BME280;3001;42.622;23.194;2023-07-31T07:32:13;91194.06;;;24.82;75.22
5952;BME280;3001;42.622;23.194;2023-07-31T07:34:39;91189.41;;;24.96;78.66
5952;BME280;3001;42.622;23.194;2023-07-31T07:37:06;91198.16;;;24.93;71.77
5952;BME280;3001;42.622;23.194;2023-07-31T07:39:33;91195.50;;;24.90;73.65
5952;BME280;3001;42.622;23.194;2023-07-31T07:41:59;91193.13;;;25.06;74.30
5952;BME280;3001;42.622;23.194;2023-07-31T07:44:27;91186.66;;;25.10;76.13
5952;BME280;3001;42.622;23.194;2023-07-31T07:46:54;91199.94;;;25.14;77.44
5952;BME280;3001;42.622;23.194;2023-07-31T07:49:21;91201.00;;;25.27;73.45
5952;BME280;3001;42.622;23.194;2023-07-31T07:51:48;91202.78;;;25.40;76.37
5952;BME280;3001;42.622;23.194;2023-07-31T07:54:15;91211.44;;;25.55;72.16
5952;BME280;3001;42.622;23.194;2023-07-31T07:56:43;91205.13;;;25.35;75.03
5952;BME280;3001;42.622;23.194;2023-07-31T07:59:09;91215.00;;;25.34;74.52
5952;BME280;3001;42.622;23.194;2023-07-31T08:01:37;91207.28;;;25.47;74.79
5952;BME280;3001;42.622;23.194;2023-07-31T08:04:04;91204.59;;;25.54;76.50
5952;BME280;3001;42.622;23.194;2023-07-31T08:06:31;91200.16;;;25.81;70.95
5952;BME280;3001;42.622;23.194;2023-07-31T08:08:57;91205.78;;;25.93;72.10
5952;BME280;3001;42.622;23.194;2023-07-31T08:11:24;91201.84;;;26.05;73.51
5952;BME280;3001;42.622;23.194;2023-07-31T08:13:51;91203.28;;;26.13;74.46
5952;BME280;3001;42.622;23.194;2023-07-31T08:16:17;91201.97;;;26.28;73.27
5952;BME280;3001;42.622;23.194;2023-07-31T08:18:45;91214.13;;;26.29;72.50
5952;BME280;3001;42.622;23.194;2023-07-31T08:21:12;91214.09;;;25.99;72.64
5952;BME280;3001;42.622;23.194;2023-07-31T08:23:39;91209.56;;;25.96;70.05
5952;BME280;3001;42.622;23.194;2023-07-31T08:45:42;91201.97;;;25.91;66.33
5952;BME280;3001;42.622;23.194;2023-07-31T08:48:08;91208.50;;;25.86;66.50
5952;BME280;3001;42.622;23.194;2023-07-31T08:50:35;91205.31;;;26.02;70.09
5952;BME280;3001;42.622;23.194;2023-07-31T08:53:02;91206.69;;;25.73;65.04
5952;BME280;3001;42.622;23.194;2023-07-31T08:55:29;91215.59;;;25.56;67.50
5952;BME280;3001;42.622;23.194;2023-07-31T08:57:57;91205.34;;;25.51;68.97
5952;BME280;3001;42.622;23.194;2023-07-31T09:00:25;91214.03;;;25.58;70.13
5952;BME280;3001;42.622;23.194;2023-07-31T09:02:59;91208.41;;;25.53;67.89
5952;BME280;3001;42.622;23.194;2023-07-31T09:05:29;91208.41;;;25.49;69.11
5952;BME280;3001;42.622;23.194;2023-07-31T09:07:57;91204.69;;;25.43;72.52
5952;BME280;3001;42.622;23.194;2023-07-31T09:10:24;91209.34;;;25.73;70.85
5952;BME280;3001;42.622;23.194;2023-07-31T09:12:51;91203.63;;;25.78;62.76
5952;BME280;3001;42.622;23.194;2023-07-31T09:15:19;91200.31;;;26.07;65.63
5952;BME280;3001;42.622;23.194;2023-07-31T09:17:46;91192.63;;;26.46;62.33
5952;BME280;3001;42.622;23.194;2023-07-31T09:20:16;91194.03;;;26.58;66.02
5952;BME280;3001;42.622;23.194;2023-07-31T09:22:43;91196.63;;;26.65;67.64
5952;BME280;3001;42.622;23.194;2023-07-31T09:25:17;91195.25;;;26.53;69.51
5952;BME280;3001;42.622;23.194;2023-07-31T09:58:56;91183.91;;;26.42;66.60
5952;BME280;3001;42.622;23.194;2023-07-31T10:01:23;91174.16;;;26.32;67.27
5952;BME280;3001;42.622;23.194;2023-07-31T10:03:50;91189.06;;;26.26;67.10
5952;BME280;3001;42.622;23.194;2023-07-31T10:06:17;91189.69;;;26.04;69.93
5952;BME280;3001;42.622;23.194;2023-07-31T10:08:47;91184.72;;;26.06;70.03
5952;BME280;3001;42.622;23.194;2023-07-31T10:11:14;91184.56;;;26.20;71.39
5952;BME280;3001;42.622;23.194;2023-07-31T10:13:42;91182.72;;;26.47;67.41
5952;BME280;3001;42.622;23.194;2023-07-31T10:16:12;91182.53;;;26.31;64.19
5952;BME280;3001;42.622;23.194;2023-07-31T10:18:39;91188.22;;;26.33;64.19
5952;BME280;3001;42.622;23.194;2023-07-31T10:21:07;91176.34;;;26.41;67.33
5952;BME280;3001;42.622;23.194;2023-07-31T10:23:34;91173.34;;;26.68;65.89
5952;BME280;3001;42.622;23.194;2023-07-31T10:26:01;91173.81;;;26.90;66.89
5952;BME280;3001;42.622;23.194;2023-07-31T10:28:29;91165.47;;;27.14;60.22
5952;BME280;3001;42.622;23.194;2023-07-31T10:30:59;91168.19;;;27.37;62.17
5952;BME280;3001;42.622;23.194;2023-07-31T10:33:28;91165.03;;;27.65;59.16
5952;BME280;3001;42.622;23.194;2023-07-31T10:36:13;91163.88;;;27.66;59.75
5952;BME280;3001;42.622;23.194;2023-07-31T10:38:41;91165.25;;;27.51;60.95
5952;BME280;3001;42.622;23.194;2023-07-31T10:41:08;91166.56;;;27.43;63.46
5952;BME280;3001;42.622;23.194;2023-07-31T10:43:36;91165.69;;;27.50;61.87
5952;BME280;3001;42.622;23.194;2023-07-31T10:46:06;91158.75;;;27.52;60.49
5952;BME280;3001;42.622;23.194;2023-07-31T10:48:35;91161.22;;;27.43;58.90
5952;BME280;3001;42.622;23.194;2023-07-31T10:51:07;91159.88;;;27.55;62.59
5952;BME280;3001;42.622;23.194;2023-07-31T10:53:35;91165.63;;;27.76;61.93
5952;BME280;3001;42.622;23.194;2023-07-31T10:56:03;91155.94;;;27.86;61.57
5952;BME280;3001;42.622;23.194;2023-07-31T10:58:30;91155.03;;;27.92;60.33
5952;BME280;3001;42.622;23.194;2023-07-31T11:00:58;91157.53;;;28.03;51.96
5952;BME280;3001;42.622;23.194;2023-07-31T11:03:27;91153.56;;;28.11;50.98
5952;BME280;3001;42.622;23.194;2023-07-31T11:06:08;91149.38;;;27.90;51.17
5952;BME280;3001;42.622;23.194;2023-07-31T11:08:35;91141.06;;;27.62;55.41
5952;BME280;3001;42.622;23.194;2023-07-31T11:11:08;91146.81;;;27.60;60.09
5952;BME280;3001;42.622;23.194;2023-07-31T11:13:40;91148.56;;;27.47;58.11
5952;BME280;3001;42.622;23.194;2023-07-31T11:16:07;91144.16;;;27.37;57.50
5952;BME280;3001;42.622;23.194;2023-07-31T11:18:34;91141.94;;;27.09;55.97
5952;BME280;3001;42.622;23.194;2023-07-31T11:21:01;91142.88;;;27.22;53.62
5952;BME280;3001;42.622;23.194;2023-07-31T11:23:30;91149.66;;;27.27;53.08
5952;BME280;3001;42.622;23.194;2023-07-31T11:25:59;91143.28;;;27.44;52.04
5952;BME280;3001;42.622;23.194;2023-07-31T11:28:31;91146.59;;;27.51;52.96
5952;BME280;3001;42.622;23.194;2023-07-31T11:30:58;91142.75;;;27.52;54.01
5952;BME280;3001;42.622;23.194;2023-07-31T11:33:24;91138.28;;;27.46;55.89
5952;BME280;3001;42.622;23.194;2023-07-31T11:35:51;91155.09;;;27.43;56.70
5952;BME280;3001;42.622;23.194;2023-07-31T11:38:21;91151.91;;;27.28;60.40
5952;BME280;3001;42.622;23.194;2023-07-31T11:40:51;91139.63;;;27.34;61.39
5952;BME280;3001;42.622;23.194;2023-07-31T11:43:18;91138.13;;;27.07;60.42
5952;BME280;3001;42.622;23.194;2023-07-31T11:45:46;91139.56;;;27.15;60.18
5952;BME280;3001;42.622;23.194;2023-07-31T11:48:19;91137.50;;;26.99;57.41
5952;BME280;3001;42.622;23.194;2023-07-31T11:50:47;91137.75;;;27.31;61.89
5952;BME280;3001;42.622;23.194;2023-07-31T11:53:15;91126.22;;;27.38;57.15
5952;BME280;3001;42.622;23.194;2023-07-31T11:55:43;91127.97;;;27.48;55.85
5952;BME280;3001;42.622;23.194;2023-07-31T11:58:11;91128.00;;;27.67;56.15
5952;BME280;3001;42.622;23.194;2023-07-31T12:00:40;91126.22;;;27.84;55.95
5952;BME280;3001;42.622;23.194;2023-07-31T12:03:06;91134.09;;;27.91;54.57
5952;BME280;3001;42.622;23.194;2023-07-31T12:05:33;91133.47;;;27.83;57.68
5952;BME280;3001;42.622;23.194;2023-07-31T12:08:00;91129.84;;;27.93;58.42
5952;BME280;3001;42.622;23.194;2023-07-31T12:10:28;91119.94;;;27.94;57.41
5952;BME280;3001;42.622;23.194;2023-07-31T12:13:03;91123.47;;;27.87;57.44
5952;BME280;3001;42.622;23.194;2023-07-31T12:15:42;91116.41;;;27.77;57.48
5952;BME280;3001;42.622;23.194;2023-07-31T12:18:10;91111.16;;;27.93;59.37
5952;BME280;3001;42.622;23.194;2023-07-31T12:20:43;91104.38;;;28.08;56.14
5952;BME280;3001;42.622;23.194;2023-07-31T12:23:18;91113.75;;;28.16;55.77
5952;BME280;3001;42.622;23.194;2023-07-31T12:26:00;91115.00;;;28.12;54.76
5952;BME280;3001;42.622;23.194;2023-07-31T12:28:26;91105.22;;;28.05;56.66
5952;BME280;3001;42.622;23.194;2023-07-31T12:30:57;91110.41;;;27.93;58.55
5952;BME280;3001;42.622;23.194;2023-07-31T12:33:24;91113.28;;;27.82;60.12
5952;BME280;3001;42.622;23.194;2023-07-31T12:35:51;91115.00;;;27.69;59.46
5952;BME280;3001;42.622;23.194;2023-07-31T12:38:18;91106.72;;;27.64;59.17
5952;BME280;3001;42.622;23.194;2023-07-31T12:40:45;91102.63;;;27.59;60.00
5952;BME280;3001;42.622;23.194;2023-07-31T12:43:11;91114.50;;;27.55;59.18
5952;BME280;3001;42.622;23.194;2023-07-31T12:45:38;91108.72;;;27.37;58.21
5952;BME280;3001;42.622;23.194;2023-07-31T12:48:06;91106.66;;;27.67;61.45
5952;BME280;3001;42.622;23.194;2023-07-31T12:50:33;91104.66;;;27.94;58.81
5952;BME280;3001;42.622;23.194;2023-07-31T12:53:02;91103.34;;;28.22;56.58
5952;BME280;3001;42.622;23.194;2023-07-31T12:55:29;91104.06;;;28.45;55.19
5952;BME280;3001;42.622;23.194;2023-07-31T12:57:56;91101.75;;;28.63;50.37
5952;BME280;3001;42.622;23.194;2023-07-31T13:00:22;91097.34;;;28.72;50.30
5952;BME280;3001;42.622;23.194;2023-07-31T13:02:49;91101.16;;;28.56;48.94
5952;BME280;3001;42.622;23.194;2023-07-31T13:05:17;91097.09;;;28.48;51.30
5952;BME280;3001;42.622;23.194;2023-07-31T13:07:45;91097.13;;;28.28;54.36
5952;BME280;3001;42.622;23.194;2023-07-31T13:10:11;91095.41;;;27.99;54.16
5952;BME280;3001;42.622;23.194;2023-07-31T13:12:38;91065.63;;;27.81;53.23
5952;BME280;3001;42.622;23.194;2023-07-31T13:15:06;91092.94;;;27.88;53.42
5952;BME280;3001;42.622;23.194;2023-07-31T13:17:33;91099.69;;;27.73;55.79
5952;BME280;3001;42.622;23.194;2023-07-31T13:20:00;91094.38;;;27.73;57.40
5952;BME280;3001;42.622;23.194;2023-07-31T13:22:28;91096.81;;;27.64;56.12
5952;BME280;3001;42.622;23.194;2023-07-31T13:24:54;91095.16;;;27.70;55.19
5952;BME280;3001;42.622;23.194;2023-07-31T13:27:21;91095.97;;;27.67;57.46
5952;BME280;3001;42.622;23.194;2023-07-31T13:29:50;91090.97;;;27.50;60.18
5952;BME280;3001;42.622;23.194;2023-07-31T13:32:17;91090.72;;;27.41;58.89
5952;BME280;3001;42.622;23.194;2023-07-31T13:34:45;91102.78;;;27.26;58.28
5952;BME280;3001;42.622;23.194;2023-07-31T13:37:12;91106.69;;;27.21;58.70
5952;BME280;3001;42.622;23.194;2023-07-31T13:39:40;91096.88;;;27.15;56.43
5952;BME280;3001;42.622;23.194;2023-07-31T13:42:08;91095.34;;;27.17;60.46
5952;BME280;3001;42.622;23.194;2023-07-31T13:44:37;91096.25;;;27.30;60.83
5952;BME280;3001;42.622;23.194;2023-07-31T13:47:04;91096.66;;;27.29;57.64
5952;BME280;3001;42.622;23.194;2023-07-31T13:49:30;91096.72;;;27.25;59.78
5952;BME280;3001;42.622;23.194;2023-07-31T13:51:57;91096.66;;;27.29;61.13
5952;BME280;3001;42.622;23.194;2023-07-31T13:54:24;91096.31;;;27.27;61.79
5952;BME280;3001;42.622;23.194;2023-07-31T13:56:53;91086.78;;;27.26;61.62
5952;BME280;3001;42.622;23.194;2023-07-31T13:59:20;91086.91;;;27.42;61.47
5952;BME280;3001;42.622;23.194;2023-07-31T14:01:47;91085.28;;;27.48;59.73
5952;BME280;3001;42.622;23.194;2023-07-31T14:04:14;91092.72;;;27.56;58.71